sensor_id;sensor_type;location;lat;lon;timestamp;P1;durP1;ratioP1;P2;durP2;ratioP2
16624;SDS011;8426;48.496;9.098;2022-08-21T00:04:51;3.00;;;1.20;;
16624;SDS011;8426;48.496;9.098;2022-08-21T00:09:58;2.67;;;1.77;;
16624;SDS011;8426;48.496;9.098;2022-08-21T00:15:02;1.75;;;1.20;;
16624;SDS011;8426;48.496;9.098;2022-08-21T00:20:10;3.20;;;1.45;;
16624;SDS011;8426;48.496;9.098;2022-08-21T00:25:16;2.30;;;1.50;;
16624;SDS011;8426;48.496;9.098;2022-08-21T00:30:28;5.20;;;1.67;;
16624;SDS011;8426;48.496;9.098;2022-08-21T00:35:39;1.92;;;1.60;;
16624;SDS011;8426;48.496;9.098;2022-08-21T00:40:45;2.13;;;1.67;;
16624;SDS011;8426;48.496;9.098;2022-08-21T00:45:51;1.77;;;1.42;;
16624;SDS011;8426;48.496;9.098;2022-08-21T00:51:20;2.10;;;1.70;;
16624;SDS011;8426;48.496;9.098;2022-08-21T00:56:27;3.10;;;1.75;;
16624;SDS011;8426;48.496;9.098;2022-08-21T01:01:32;2.35;;;1.80;;
16624;SDS011;8426;48.496;9.098;2022-08-21T01:06:36;3.05;;;1.80;;
16624;SDS011;8426;48.496;9.098;2022-08-21T01:11:39;2.35;;;1.70;;
16624;SDS011;8426;48.496;9.098;2022-08-21T01:16:46;2.47;;;2.08;;
16624;SDS011;8426;48.496;9.098;2022-08-21T01:21:53;2.67;;;1.80;;
16624;SDS011;8426;48.496;9.098;2022-08-21T01:26:58;2.25;;;1.85;;
16624;SDS011;8426;48.496;9.098;2022-08-21T01:32:03;4.40;;;2.30;;
16624;SDS011;8426;48.496;9.098;2022-08-21T01:37:10;4.82;;;1.95;;
16624;SDS011;8426;48.496;9.098;2022-08-21T01:42:14;2.08;;;1.60;;
16624;SDS011;8426;48.496;9.098;2022-08-21T01:47:19;4.32;;;1.77;;
16624;SDS011;8426;48.496;9.098;2022-08-21T01:52:23;3.30;;;1.95;;
16624;SDS011;8426;48.496;9.098;2022-08-21T01:57:27;3.05;;;1.77;;
16624;SDS011;8426;48.496;9.098;2022-08-21T02:02:30;2.03;;;1.77;;
16624;SDS011;8426;48.496;9.098;2022-08-21T02:07:37;7.00;;;2.38;;
16624;SDS011;8426;48.496;9.098;2022-08-21T02:12:41;2.97;;;1.67;;
16624;SDS011;8426;48.496;9.098;2022-08-21T02:17:46;2.78;;;2.10;;
16624;SDS011;8426;48.496;9.098;2022-08-21T02:22:52;2.83;;;1.58;;
16624;SDS011;8426;48.496;9.098;2022-08-21T02:27:55;5.07;;;2.00;;
16624;SDS011;8426;48.496;9.098;2022-08-21T02:33:01;3.15;;;1.90;;
16624;SDS011;8426;48.496;9.098;2022-08-21T02:38:07;2.60;;;1.88;;
16624;SDS011;8426;48.496;9.098;2022-08-21T02:43:13;6.50;;;2.28;;
16624;SDS011;8426;48.496;9.098;2022-08-21T02:48:18;2.65;;;1.73;;
16624;SDS011;8426;48.496;9.098;2022-08-21T02:53:26;3.85;;;2.22;;
16624;SDS011;8426;48.496;9.098;2022-08-21T02:58:31;3.38;;;2.03;;
16624;SDS011;8426;48.496;9.098;2022-08-21T03:03:42;2.83;;;2.08;;
16624;SDS011;8426;48.496;9.098;2022-08-21T03:08:48;4.68;;;2.00;;
16624;SDS011;8426;48.496;9.098;2022-08-21T03:13:52;2.95;;;2.38;;
16624;SDS011;8426;48.496;9.098;2022-08-21T03:18:55;3.22;;;2.35;;
16624;SDS011;8426;48.496;9.098;2022-08-21T03:24:00;2.85;;;2.10;;
16624;SDS011;8426;48.496;9.098;2022-08-21T03:29:04;2.70;;;2.30;;
16624;SDS011;8426;48.496;9.098;2022-08-21T03:34:08;4.10;;;2.42;;
16624;SDS011;8426;48.496;9.098;2022-08-21T03:39:13;4.55;;;2.47;;
16624;SDS011;8426;48.496;9.098;2022-08-21T03:44:19;3.75;;;2.35;;
16624;SDS011;8426;48.496;9.098;2022-08-21T03:49:22;3.65;;;3.20;;
16624;SDS011;8426;48.496;9.098;2022-08-21T03:54:27;3.17;;;2.30;;
16624;SDS011;8426;48.496;9.098;2022-08-21T03:59:30;3.67;;;2.20;;
16624;SDS011;8426;48.496;9.098;2022-08-21T04:04:33;6.85;;;2.28;;
16624;SDS011;8426;48.496;9.098;2022-08-21T04:09:38;4.47;;;2.15;;
16624;SDS011;8426;48.496;9.098;2022-08-21T04:14:42;2.85;;;2.13;;
16624;SDS011;8426;48.496;9.098;2022-08-21T04:19:45;3.95;;;2.50;;
16624;SDS011;8426;48.496;9.098;2022-08-21T04:24:55;4.82;;;2.22;;
16624;SDS011;8426;48.496;9.098;2022-08-21T04:29:58;3.92;;;2.50;;
16624;SDS011;8426;48.496;9.098;2022-08-21T04:35:03;3.17;;;2.40;;
16624;SDS011;8426;48.496;9.098;2022-08-21T04:40:10;5.43;;;2.35;;
16624;SDS011;8426;48.496;9.098;2022-08-21T04:45:16;6.47;;;2.45;;
16624;SDS011;8426;48.496;9.098;2022-08-21T04:50:24;4.72;;;2.05;;
16624;SDS011;8426;48.496;9.098;2022-08-21T04:55:31;3.78;;;2.20;;
16624;SDS011;8426;48.496;9.098;2022-08-21T05:00:35;6.53;;;2.63;;
16624;SDS011;8426;48.496;9.098;2022-08-21T05:05:39;5.78;;;2.42;;
16624;SDS011;8426;48.496;9.098;2022-08-21T05:10:45;5.40;;;2.85;;
16624;SDS011;8426;48.496;9.098;2022-08-21T05:15:48;3.75;;;2.67;;
16624;SDS011;8426;48.496;9.098;2022-08-21T05:20:51;3.92;;;2.60;;
16624;SDS011;8426;48.496;9.098;2022-08-21T05:25:56;3.55;;;2.63;;
16624;SDS011;8426;48.496;9.098;2022-08-21T05:31:00;4.95;;;2.80;;
16624;SDS011;8426;48.496;9.098;2022-08-21T05:36:03;3.97;;;3.00;;
16624;SDS011;8426;48.496;9.098;2022-08-21T05:41:08;4.82;;;3.08;;
16624;SDS011;8426;48.496;9.098;2022-08-21T05:46:11;5.57;;;3.42;;
16624;SDS011;8426;48.496;9.098;2022-08-21T05:51:14;3.53;;;3.00;;
16624;SDS011;8426;48.496;9.098;2022-08-21T05:56:20;4.80;;;3.58;;
16624;SDS011;8426;48.496;9.098;2022-08-21T06:01:23;4.03;;;3.40;;
16624;SDS011;8426;48.496;9.098;2022-08-21T06:06:27;5.07;;;3.22;;
16624;SDS011;8426;48.496;9.098;2022-08-21T06:11:31;5.63;;;3.53;;
16624;SDS011;8426;48.496;9.098;2022-08-21T06:16:35;4.55;;;3.50;;
16624;SDS011;8426;48.496;9.098;2022-08-21T06:21:39;4.90;;;3.30;;
16624;SDS011;8426;48.496;9.098;2022-08-21T06:26:48;5.85;;;2.40;;
16624;SDS011;8426;48.496;9.098;2022-08-21T06:31:52;5.07;;;1.27;;
16624;SDS011;8426;48.496;9.098;2022-08-21T06:36:55;6.68;;;1.08;;
16624;SDS011;8426;48.496;9.098;2022-08-21T06:42:00;5.63;;;1.30;;
16624;SDS011;8426;48.496;9.098;2022-08-21T06:47:04;1.83;;;1.30;;
16624;SDS011;8426;48.496;9.098;2022-08-21T06:52:08;2.05;;;1.23;;
16624;SDS011;8426;48.496;9.098;2022-08-21T06:57:14;1.55;;;0.90;;
16624;SDS011;8426;48.496;9.098;2022-08-21T07:02:21;3.00;;;0.90;;
16624;SDS011;8426;48.496;9.098;2022-08-21T07:07:24;1.63;;;0.93;;
16624;SDS011;8426;48.496;9.098;2022-08-21T07:12:30;1.65;;;0.88;;
16624;SDS011;8426;48.496;9.098;2022-08-21T07:17:33;2.72;;;1.02;;
16624;SDS011;8426;48.496;9.098;2022-08-21T07:22:37;2.58;;;1.33;;
16624;SDS011;8426;48.496;9.098;2022-08-21T07:27:42;4.03;;;1.20;;
16624;SDS011;8426;48.496;9.098;2022-08-21T07:32:46;1.98;;;1.15;;
16624;SDS011;8426;48.496;9.098;2022-08-21T07:37:50;4.13;;;1.23;;
16624;SDS011;8426;48.496;9.098;2022-08-21T07:42:55;2.83;;;1.10;;
16624;SDS011;8426;48.496;9.098;2022-08-21T07:47:58;4.50;;;1.00;;
16624;SDS011;8426;48.496;9.098;2022-08-21T07:53:01;3.47;;;1.30;;
16624;SDS011;8426;48.496;9.098;2022-08-21T07:58:07;3.75;;;1.05;;
16624;SDS011;8426;48.496;9.098;2022-08-21T08:03:11;4.22;;;1.02;;
16624;SDS011;8426;48.496;9.098;2022-08-21T08:08:20;1.90;;;1.10;;
16624;SDS011;8426;48.496;9.098;2022-08-21T08:13:25;5.35;;;1.33;;
16624;SDS011;8426;48.496;9.098;2022-08-21T08:18:28;4.85;;;1.30;;
16624;SDS011;8426;48.496;9.098;2022-08-21T08:23:32;4.68;;;1.75;;
16624;SDS011;8426;48.496;9.098;2022-08-21T08:28:37;3.30;;;1.40;;
16624;SDS011;8426;48.496;9.098;2022-08-21T08:33:41;4.10;;;1.98;;
16624;SDS011;8426;48.496;9.098;2022-08-21T08:38:45;6.18;;;1.90;;
16624;SDS011;8426;48.496;9.098;2022-08-21T08:43:54;6.13;;;1.85;;
16624;SDS011;8426;48.496;9.098;2022-08-21T08:49:06;7.07;;;1.92;;
16624;SDS011;8426;48.496;9.098;2022-08-21T08:54:21;5.53;;;2.20;;
16624;SDS011;8426;48.496;9.098;2022-08-21T08:59:35;4.75;;;1.90;;
16624;SDS011;8426;48.496;9.098;2022-08-21T09:04:45;4.88;;;1.80;;
16624;SDS011;8426;48.496;9.098;2022-08-21T09:10:02;3.20;;;1.67;;
16624;SDS011;8426;48.496;9.098;2022-08-21T09:15:15;3.00;;;1.50;;
16624;SDS011;8426;48.496;9.098;2022-08-21T09:20:28;7.90;;;1.90;;
16624;SDS011;8426;48.496;9.098;2022-08-21T09:25:38;4.95;;;2.00;;
16624;SDS011;8426;48.496;9.098;2022-08-21T09:30:49;5.63;;;2.40;;
16624;SDS011;8426;48.496;9.098;2022-08-21T09:35:56;4.90;;;1.83;;
16624;SDS011;8426;48.496;9.098;2022-08-21T09:41:01;4.60;;;1.88;;
16624;SDS011;8426;48.496;9.098;2022-08-21T09:46:09;6.75;;;1.85;;
16624;SDS011;8426;48.496;9.098;2022-08-21T09:51:14;5.03;;;1.63;;
16624;SDS011;8426;48.496;9.098;2022-08-21T09:56:26;7.25;;;2.20;;
16624;SDS011;8426;48.496;9.098;2022-08-21T10:01:52;5.70;;;2.08;;
16624;SDS011;8426;48.496;9.098;2022-08-21T10:07:07;3.72;;;1.98;;
16624;SDS011;8426;48.496;9.098;2022-08-21T10:12:13;4.63;;;1.73;;
16624;SDS011;8426;48.496;9.098;2022-08-21T10:17:27;4.47;;;2.08;;
16624;SDS011;8426;48.496;9.098;2022-08-21T10:22:39;4.60;;;1.80;;
16624;SDS011;8426;48.496;9.098;2022-08-21T10:27:56;5.32;;;1.92;;
16624;SDS011;8426;48.496;9.098;2022-08-21T10:33:19;5.10;;;1.70;;
16624;SDS011;8426;48.496;9.098;2022-08-21T10:44:29;3.63;;;1.77;;
16624;SDS011;8426;48.496;9.098;2022-08-21T10:49:47;4.50;;;1.88;;
16624;SDS011;8426;48.496;9.098;2022-08-21T10:55:00;5.20;;;2.05;;
16624;SDS011;8426;48.496;9.098;2022-08-21T11:00:10;7.00;;;2.08;;
16624;SDS011;8426;48.496;9.098;2022-08-21T11:05:21;3.65;;;1.90;;
16624;SDS011;8426;48.496;9.098;2022-08-21T11:10:35;5.13;;;2.10;;
16624;SDS011;8426;48.496;9.098;2022-08-21T11:16:00;4.53;;;2.28;;
16624;SDS011;8426;48.496;9.098;2022-08-21T11:21:15;6.18;;;2.40;;
16624;SDS011;8426;48.496;9.098;2022-08-21T11:26:29;4.60;;;1.77;;
16624;SDS011;8426;48.496;9.098;2022-08-21T11:31:44;6.47;;;2.67;;
16624;SDS011;8426;48.496;9.098;2022-08-21T11:37:01;9.48;;;7.13;;
16624;SDS011;8426;48.496;9.098;2022-08-21T11:42:15;7.53;;;3.92;;
16624;SDS011;8426;48.496;9.098;2022-08-21T11:47:28;7.18;;;1.80;;
16624;SDS011;8426;48.496;9.098;2022-08-21T11:52:45;4.80;;;2.10;;
16624;SDS011;8426;48.496;9.098;2022-08-21T11:57:53;3.67;;;1.70;;
16624;SDS011;8426;48.496;9.098;2022-08-21T12:03:06;5.50;;;1.67;;
16624;SDS011;8426;48.496;9.098;2022-08-21T12:08:13;5.60;;;1.77;;
16624;SDS011;8426;48.496;9.098;2022-08-21T12:13:31;8.80;;;1.90;;
16624;SDS011;8426;48.496;9.098;2022-08-21T12:18:43;8.35;;;1.77;;
16624;SDS011;8426;48.496;9.098;2022-08-21T12:23:48;6.18;;;1.70;;
16624;SDS011;8426;48.496;9.098;2022-08-21T12:29:13;6.20;;;1.80;;
16624;SDS011;8426;48.496;9.098;2022-08-21T12:34:44;2.78;;;1.80;;
16624;SDS011;8426;48.496;9.098;2022-08-21T12:39:54;3.60;;;2.00;;
16624;SDS011;8426;48.496;9.098;2022-08-21T12:45:02;5.53;;;1.85;;
16624;SDS011;8426;48.496;9.098;2022-08-21T12:50:09;4.60;;;1.90;;
16624;SDS011;8426;48.496;9.098;2022-08-21T12:55:25;2.95;;;1.58;;
16624;SDS011;8426;48.496;9.098;2022-08-21T13:00:29;8.13;;;1.98;;
16624;SDS011;8426;48.496;9.098;2022-08-21T13:05:34;5.32;;;1.80;;
16624;SDS011;8426;48.496;9.098;2022-08-21T13:10:41;8.10;;;2.15;;
16624;SDS011;8426;48.496;9.098;2022-08-21T13:15:46;2.47;;;1.63;;
16624;SDS011;8426;48.496;9.098;2022-08-21T13:20:50;6.30;;;1.55;;
16624;SDS011;8426;48.496;9.098;2022-08-21T13:25:56;5.43;;;1.83;;
16624;SDS011;8426;48.496;9.098;2022-08-21T13:31:00;3.33;;;1.60;;
16624;SDS011;8426;48.496;9.098;2022-08-21T13:36:04;4.65;;;1.95;;
16624;SDS011;8426;48.496;9.098;2022-08-21T13:41:16;5.82;;;1.80;;
16624;SDS011;8426;48.496;9.098;2022-08-21T13:46:24;6.57;;;1.60;;
16624;SDS011;8426;48.496;9.098;2022-08-21T13:51:30;10.27;;;2.47;;
16624;SDS011;8426;48.496;9.098;2022-08-21T13:56:42;3.85;;;1.70;;
16624;SDS011;8426;48.496;9.098;2022-08-21T14:01:48;3.67;;;1.58;;
16624;SDS011;8426;48.496;9.098;2022-08-21T14:06:56;6.55;;;1.50;;
16624;SDS011;8426;48.496;9.098;2022-08-21T14:12:02;2.92;;;1.80;;
16624;SDS011;8426;48.496;9.098;2022-08-21T14:17:28;2.53;;;1.58;;
16624;SDS011;8426;48.496;9.098;2022-08-21T14:22:41;4.32;;;1.52;;
16624;SDS011;8426;48.496;9.098;2022-08-21T14:27:50;4.55;;;1.70;;
16624;SDS011;8426;48.496;9.098;2022-08-21T14:32:55;4.18;;;1.55;;
16624;SDS011;8426;48.496;9.098;2022-08-21T14:37:58;7.35;;;1.73;;
16624;SDS011;8426;48.496;9.098;2022-08-21T14:43:03;3.67;;;1.80;;
16624;SDS011;8426;48.496;9.098;2022-08-21T14:48:06;3.15;;;1.42;;
16624;SDS011;8426;48.496;9.098;2022-08-21T14:53:10;4.40;;;1.75;;
16624;SDS011;8426;48.496;9.098;2022-08-21T14:58:14;3.00;;;1.30;;
16624;SDS011;8426;48.496;9.098;2022-08-21T15:03:18;3.53;;;1.60;;
16624;SDS011;8426;48.496;9.098;2022-08-21T15:08:25;2.35;;;1.50;;
16624;SDS011;8426;48.496;9.098;2022-08-21T15:13:29;4.32;;;1.65;;
16624;SDS011;8426;48.496;9.098;2022-08-21T15:18:33;2.53;;;1.70;;
16624;SDS011;8426;48.496;9.098;2022-08-21T15:23:37;4.32;;;1.80;;
16624;SDS011;8426;48.496;9.098;2022-08-21T15:28:45;1.90;;;1.33;;
16624;SDS011;8426;48.496;9.098;2022-08-21T15:33:49;3.78;;;1.60;;
16624;SDS011;8426;48.496;9.098;2022-08-21T15:38:52;3.70;;;1.55;;
16624;SDS011;8426;48.496;9.098;2022-08-21T15:43:57;7.47;;;1.50;;
16624;SDS011;8426;48.496;9.098;2022-08-21T15:49:00;2.88;;;1.50;;
16624;SDS011;8426;48.496;9.098;2022-08-21T15:54:04;3.72;;;1.60;;
16624;SDS011;8426;48.496;9.098;2022-08-21T15:59:14;2.03;;;1.30;;
16624;SDS011;8426;48.496;9.098;2022-08-21T16:04:20;2.00;;;1.45;;
16624;SDS011;8426;48.496;9.098;2022-08-21T16:09:26;3.83;;;1.40;;
16624;SDS011;8426;48.496;9.098;2022-08-21T16:14:31;3.47;;;1.85;;
16624;SDS011;8426;48.496;9.098;2022-08-21T16:19:37;4.53;;;1.58;;
16624;SDS011;8426;48.496;9.098;2022-08-21T16:24:40;4.65;;;1.80;;
16624;SDS011;8426;48.496;9.098;2022-08-21T16:29:46;4.10;;;1.85;;
16624;SDS011;8426;48.496;9.098;2022-08-21T16:34:50;3.75;;;1.90;;
16624;SDS011;8426;48.496;9.098;2022-08-21T16:39:54;2.97;;;1.60;;
16624;SDS011;8426;48.496;9.098;2022-08-21T16:44:59;4.40;;;1.80;;
16624;SDS011;8426;48.496;9.098;2022-08-21T16:50:05;4.07;;;1.88;;
16624;SDS011;8426;48.496;9.098;2022-08-21T16:55:10;5.32;;;2.15;;
16624;SDS011;8426;48.496;9.098;2022-08-21T17:00:18;5.65;;;2.03;;
16624;SDS011;8426;48.496;9.098;2022-08-21T17:05:24;8.27;;;2.47;;
16624;SDS011;8426;48.496;9.098;2022-08-21T17:10:31;4.15;;;2.10;;
16624;SDS011;8426;48.496;9.098;2022-08-21T17:15:36;9.48;;;2.22;;
16624;SDS011;8426;48.496;9.098;2022-08-21T17:20:40;5.07;;;2.42;;
16624;SDS011;8426;48.496;9.098;2022-08-21T17:25:45;3.08;;;1.88;;
16624;SDS011;8426;48.496;9.098;2022-08-21T17:30:56;4.13;;;2.10;;
16624;SDS011;8426;48.496;9.098;2022-08-21T17:36:11;5.03;;;1.70;;
16624;SDS011;8426;48.496;9.098;2022-08-21T17:41:14;4.70;;;1.98;;
16624;SDS011;8426;48.496;9.098;2022-08-21T17:46:24;4.10;;;1.90;;
16624;SDS011;8426;48.496;9.098;2022-08-21T17:51:30;6.18;;;1.80;;
16624;SDS011;8426;48.496;9.098;2022-08-21T17:56:35;2.80;;;1.55;;
16624;SDS011;8426;48.496;9.098;2022-08-21T18:01:42;5.70;;;1.80;;
16624;SDS011;8426;48.496;9.098;2022-08-21T18:06:47;3.70;;;1.90;;
16624;SDS011;8426;48.496;9.098;2022-08-21T18:11:50;5.03;;;1.90;;
16624;SDS011;8426;48.496;9.098;2022-08-21T18:16:56;6.10;;;1.60;;
16624;SDS011;8426;48.496;9.098;2022-08-21T18:22:00;3.90;;;2.03;;
16624;SDS011;8426;48.496;9.098;2022-08-21T18:27:11;9.32;;;1.58;;
16624;SDS011;8426;48.496;9.098;2022-08-21T18:32:22;5.75;;;2.00;;
16624;SDS011;8426;48.496;9.098;2022-08-21T18:37:32;6.22;;;2.35;;
16624;SDS011;8426;48.496;9.098;2022-08-21T18:42:37;4.70;;;1.88;;
16624;SDS011;8426;48.496;9.098;2022-08-21T18:47:57;2.42;;;1.60;;
16624;SDS011;8426;48.496;9.098;2022-08-21T18:53:02;6.28;;;1.70;;
16624;SDS011;8426;48.496;9.098;2022-08-21T18:58:26;2.65;;;1.60;;
16624;SDS011;8426;48.496;9.098;2022-08-21T19:03:31;3.53;;;1.70;;
16624;SDS011;8426;48.496;9.098;2022-08-21T19:08:35;9.73;;;2.10;;
16624;SDS011;8426;48.496;9.098;2022-08-21T19:13:38;4.80;;;2.08;;
16624;SDS011;8426;48.496;9.098;2022-08-21T19:18:45;4.40;;;2.33;;
16624;SDS011;8426;48.496;9.098;2022-08-21T19:23:50;3.05;;;1.88;;
16624;SDS011;8426;48.496;9.098;2022-08-21T19:28:54;5.30;;;1.98;;
16624;SDS011;8426;48.496;9.098;2022-08-21T19:34:02;4.97;;;2.35;;
16624;SDS011;8426;48.496;9.098;2022-08-21T19:39:08;3.90;;;2.25;;
16624;SDS011;8426;48.496;9.098;2022-08-21T19:44:13;4.13;;;2.28;;
16624;SDS011;8426;48.496;9.098;2022-08-21T19:49:26;5.38;;;2.25;;
16624;SDS011;8426;48.496;9.098;2022-08-21T19:54:51;3.17;;;1.70;;
16624;SDS011;8426;48.496;9.098;2022-08-21T19:59:55;3.35;;;1.80;;
16624;SDS011;8426;48.496;9.098;2022-08-21T20:05:00;3.67;;;2.13;;
16624;SDS011;8426;48.496;9.098;2022-08-21T20:10:04;4.07;;;2.30;;
16624;SDS011;8426;48.496;9.098;2022-08-21T20:15:10;4.60;;;2.35;;
16624;SDS011;8426;48.496;9.098;2022-08-21T20:20:16;3.92;;;2.20;;
16624;SDS011;8426;48.496;9.098;2022-08-21T20:25:23;3.08;;;1.80;;
16624;SDS011;8426;48.496;9.098;2022-08-21T20:30:30;6.15;;;1.90;;
16624;SDS011;8426;48.496;9.098;2022-08-21T20:35:35;3.85;;;2.03;;
16624;SDS011;8426;48.496;9.098;2022-08-21T20:40:38;2.95;;;1.45;;
16624;SDS011;8426;48.496;9.098;2022-08-21T20:45:42;3.30;;;1.90;;
16624;SDS011;8426;48.496;9.098;2022-08-21T20:50:48;4.18;;;1.85;;
16624;SDS011;8426;48.496;9.098;2022-08-21T20:55:54;3.42;;;1.77;;
16624;SDS011;8426;48.496;9.098;2022-08-21T21:01:02;3.85;;;2.30;;
16624;SDS011;8426;48.496;9.098;2022-08-21T21:06:10;8.35;;;2.47;;
16624;SDS011;8426;48.496;9.098;2022-08-21T21:11:18;2.42;;;1.73;;
16624;SDS011;8426;48.496;9.098;2022-08-21T21:16:27;5.30;;;2.08;;
16624;SDS011;8426;48.496;9.098;2022-08-21T21:21:36;3.85;;;2.22;;
16624;SDS011;8426;48.496;9.098;2022-08-21T21:26:53;2.28;;;1.60;;
16624;SDS011;8426;48.496;9.098;2022-08-21T21:31:59;2.75;;;1.80;;
16624;SDS011;8426;48.496;9.098;2022-08-21T21:37:05;5.05;;;2.10;;
16624;SDS011;8426;48.496;9.098;2022-08-21T21:42:10;4.53;;;2.25;;
16624;SDS011;8426;48.496;9.098;2022-08-21T21:47:34;6.47;;;2.13;;
16624;SDS011;8426;48.496;9.098;2022-08-21T21:52:54;3.88;;;1.83;;
16624;SDS011;8426;48.496;9.098;2022-08-21T21:58:23;2.60;;;1.75;;
16624;SDS011;8426;48.496;9.098;2022-08-21T22:03:41;5.45;;;1.95;;
16624;SDS011;8426;48.496;9.098;2022-08-21T22:08:52;4.35;;;2.08;;
16624;SDS011;8426;48.496;9.098;2022-08-21T22:14:06;3.75;;;2.03;;
16624;SDS011;8426;48.496;9.098;2022-08-21T22:19:14;5.53;;;2.08;;
16624;SDS011;8426;48.496;9.098;2022-08-21T22:24:24;3.35;;;1.92;;
16624;SDS011;8426;48.496;9.098;2022-08-21T22:29:44;7.75;;;2.70;;
16624;SDS011;8426;48.496;9.098;2022-08-21T22:35:00;5.38;;;2.40;;
16624;SDS011;8426;48.496;9.098;2022-08-21T22:40:06;3.70;;;2.22;;
16624;SDS011;8426;48.496;9.098;2022-08-21T22:45:11;4.50;;;2.33;;
16624;SDS011;8426;48.496;9.098;2022-08-21T22:50:27;4.38;;;2.30;;
16624;SDS011;8426;48.496;9.098;2022-08-21T22:55:36;6.35;;;2.47;;
16624;SDS011;8426;48.496;9.098;2022-08-21T23:00:47;5.70;;;2.63;;
16624;SDS011;8426;48.496;9.098;2022-08-21T23:05:55;5.18;;;2.70;;
16624;SDS011;8426;48.496;9.098;2022-08-21T23:11:03;3.97;;;2.25;;
16624;SDS011;8426;48.496;9.098;2022-08-21T23:16:25;5.03;;;2.20;;
16624;SDS011;8426;48.496;9.098;2022-08-21T23:21:49;5.32;;;2.10;;
16624;SDS011;8426;48.496;9.098;2022-08-21T23:27:03;4.25;;;2.28;;
16624;SDS011;8426;48.496;9.098;2022-08-21T23:32:23;6.38;;;2.65;;
16624;SDS011;8426;48.496;9.098;2022-08-21T23:37:45;5.22;;;2.80;;
16624;SDS011;8426;48.496;9.098;2022-08-21T23:43:00;3.67;;;2.58;;
16624;SDS011;8426;48.496;9.098;2022-08-21T23:48:15;5.97;;;2.28;;
16624;SDS011;8426;48.496;9.098;2022-08-21T23:53:32;5.07;;;2.45;;
16624;SDS011;8426;48.496;9.098;2022-08-21T23:58:54;6.50;;;2.63;;
